createdAt,value
2019-03-08T00:02:21.930Z,84.67
2019-03-08T00:07:27.414Z,85.00
2019-03-08T00:12:32.899Z,84.56
2019-03-08T00:17:38.100Z,84.53
2019-03-08T00:22:43.404Z,85.09
2019-03-08T00:27:48.658Z,85.59
2019-03-08T00:32:54.102Z,85.75
2019-03-08T00:37:59.375Z,85.37
2019-03-08T00:43:04.917Z,85.17
2019-03-08T00:48:10.158Z,85.06
2019-03-08T00:53:15.829Z,84.97
2019-03-08T00:58:21.277Z,84.87
2019-03-08T01:03:26.512Z,85.36
2019-03-08T01:08:32.014Z,84.75
2019-03-08T01:13:37.312Z,84.16
2019-03-08T01:18:42.605Z,84.29
2019-03-08T01:23:47.840Z,84.74
2019-03-08T01:28:53.115Z,84.65
2019-03-08T01:33:58.321Z,85.14
2019-03-08T01:39:04.695Z,85.49
2019-03-08T01:44:09.990Z,85.72
2019-03-08T01:49:15.226Z,85.96
2019-03-08T01:54:20.689Z,86.27
2019-03-08T01:59:25.961Z,86.07
2019-03-08T02:04:32.161Z,85.79
2019-03-08T02:09:37.390Z,85.38
2019-03-08T02:14:42.783Z,85.52
2019-03-08T02:19:48.175Z,85.67
2019-03-08T02:24:53.387Z,85.87
2019-03-08T02:29:58.665Z,86.22
2019-03-08T02:35:04.005Z,86.11
2019-03-08T02:40:27.180Z,86.11
2019-03-08T02:45:32.686Z,86.31
2019-03-08T02:50:38.120Z,86.73
2019-03-08T02:55:43.370Z,87.21
2019-03-08T03:00:48.926Z,87.30
2019-03-08T03:05:54.202Z,87.10
2019-03-08T03:10:59.440Z,86.84
2019-03-08T03:16:04.741Z,87.12
2019-03-08T03:21:09.945Z,87.23
2019-03-08T03:26:15.264Z,87.39
2019-03-08T03:31:20.497Z,87.44
2019-03-08T03:36:25.775Z,87.26
2019-03-08T03:41:31.365Z,86.62
2019-03-08T03:46:36.635Z,86.08
2019-03-08T03:51:41.870Z,85.93
2019-03-08T03:56:47.130Z,85.97
2019-03-08T04:01:52.360Z,85.75
2019-03-08T04:06:57.596Z,86.00
2019-03-08T04:12:02.815Z,86.10
2019-03-08T04:17:08.071Z,86.34
2019-03-08T04:22:13.355Z,86.33
2019-03-08T04:27:18.581Z,86.37
2019-03-08T04:32:23.801Z,85.98
2019-03-08T04:37:29.139Z,85.82
2019-03-08T04:42:34.419Z,85.98
2019-03-08T04:47:39.746Z,86.00
2019-03-08T04:52:45.053Z,86.26
2019-03-08T04:57:50.448Z,86.40
2019-03-08T05:02:55.759Z,86.33
2019-03-08T05:08:00.984Z,86.27
2019-03-08T05:13:06.242Z,85.87
2019-03-08T05:18:11.517Z,86.75
2019-03-08T05:23:16.999Z,86.87
2019-03-08T05:28:22.282Z,87.04
2019-03-08T05:33:27.482Z,87.50
2019-03-08T05:38:32.830Z,87.13
2019-03-08T05:43:38.090Z,86.43
2019-03-08T05:48:43.315Z,86.43
2019-03-08T05:53:48.605Z,86.87
2019-03-08T05:58:53.803Z,86.90
2019-03-08T06:03:59.075Z,87.83
2019-03-08T06:09:05.873Z,88.04
2019-03-08T06:14:11.146Z,88.84
2019-03-08T06:19:16.410Z,88.81
2019-03-08T06:24:21.737Z,89.13
2019-03-08T06:29:27.142Z,89.58
2019-03-08T06:34:32.936Z,89.69
2019-03-08T06:39:38.348Z,89.70
2019-03-08T06:44:43.618Z,89.80
2019-03-08T06:49:48.856Z,90.12
2019-03-08T06:54:54.243Z,90.10
2019-03-08T07:00:07.276Z,90.24
2019-03-08T07:05:12.535Z,90.24
2019-03-08T07:10:17.844Z,90.93
2019-03-08T07:15:23.382Z,91.00
2019-03-08T07:20:36.987Z,91.00
2019-03-08T07:25:54.186Z,90.85
2019-03-08T07:31:11.436Z,90.36
2019-03-08T07:36:24.952Z,89.85
2019-03-08T07:41:38.078Z,89.51
2019-03-08T07:46:52.027Z,89.26
2019-03-08T07:52:07.112Z,88.72
2019-03-08T07:57:21.059Z,89.05
2019-03-08T08:02:34.987Z,88.46
2019-03-08T08:07:46.727Z,88.29
2019-03-08T08:13:02.024Z,88.67
2019-03-08T08:18:14.819Z,86.47
2019-03-08T08:23:34.352Z,85.67
2019-03-08T08:28:50.649Z,84.38
2019-03-08T08:34:05.246Z,84.89
2019-03-08T08:39:32.240Z,84.53
2019-03-08T08:44:49.491Z,82.38
2019-03-08T08:50:03.155Z,81.90
2019-03-08T08:55:19.597Z,82.23
2019-03-08T09:00:31.900Z,83.21
2019-03-08T09:05:42.426Z,83.29
2019-03-08T09:10:54.725Z,83.02
2019-03-08T09:21:26.702Z,82.05
2019-03-08T09:26:39.985Z,81.76
2019-03-08T09:31:53.321Z,82.18
2019-03-08T09:37:09.310Z,82.13
2019-03-08T09:42:22.995Z,81.81
2019-03-08T09:47:36.939Z,81.24
2019-03-08T09:52:51.122Z,81.05
2019-03-08T09:58:15.234Z,80.32
2019-03-08T10:03:39.382Z,80.07
2019-03-08T10:08:53.918Z,80.84
2019-03-08T10:14:09.144Z,82.33
2019-03-08T10:19:30.000Z,83.07
2019-03-08T10:24:51.287Z,82.60
2019-03-08T10:30:04.997Z,83.54
2019-03-08T10:35:23.965Z,83.79
2019-03-08T10:40:34.915Z,85.22
2019-03-08T10:45:50.105Z,86.40
2019-03-08T10:51:01.670Z,88.14
2019-03-08T10:56:23.349Z,87.93
2019-03-08T11:01:35.561Z,89.03
2019-03-08T11:06:50.348Z,87.87
2019-03-08T11:12:03.995Z,84.53
2019-03-08T11:17:11.230Z,87.88
2019-03-08T11:22:25.007Z,88.99
2019-03-08T11:27:44.011Z,89.99
2019-03-08T11:32:57.975Z,91.30
2019-03-08T11:38:11.969Z,90.24
2019-03-08T11:43:28.995Z,92.23
2019-03-08T11:48:46.960Z,93.24
2019-03-08T11:54:05.130Z,94.36
2019-03-08T11:59:23.410Z,93.21
2019-03-08T12:04:36.916Z,92.79
2019-03-08T12:09:47.161Z,91.51
2019-03-08T12:15:00.983Z,92.17
2019-03-08T12:20:14.189Z,92.72
2019-03-08T12:25:34.014Z,93.82
2019-03-08T12:30:52.643Z,94.14
2019-03-08T12:36:05.981Z,93.56
2019-03-08T12:41:25.115Z,95.50
2019-03-08T12:46:39.010Z,95.57
2019-03-08T12:51:53.160Z,95.62
2019-03-08T12:57:06.911Z,95.22
2019-03-08T13:02:19.364Z,95.66
2019-03-08T13:07:34.231Z,96.12
2019-03-08T13:12:39.566Z,97.03
2019-03-08T13:17:45.021Z,97.06
2019-03-08T13:22:50.403Z,97.50
2019-03-08T13:27:55.895Z,97.66
2019-03-08T13:33:01.300Z,98.53
2019-03-08T13:38:09.847Z,98.95
2019-03-08T13:43:15.231Z,99.08
2019-03-08T13:48:20.588Z,99.55
2019-03-08T13:53:25.864Z,100.00
2019-03-08T13:58:31.174Z,100.00
2019-03-08T14:03:36.690Z,100.00
2019-03-08T14:08:41.996Z,100.00
2019-03-08T14:13:47.695Z,100.00
2019-03-08T14:18:52.956Z,100.00
2019-03-08T14:23:58.631Z,100.00
2019-03-08T14:29:03.950Z,100.00
2019-03-08T14:34:10.830Z,100.00
2019-03-08T14:39:17.697Z,100.00
2019-03-08T14:44:34.986Z,100.00
2019-03-08T14:49:40.225Z,100.00
2019-03-08T14:54:46.416Z,100.00
2019-03-08T14:59:53.040Z,100.00
2019-03-08T15:04:59.205Z,100.00
2019-03-08T15:10:07.726Z,100.00
2019-03-08T15:15:13.520Z,100.00
2019-03-08T15:20:19.201Z,100.00
2019-03-08T15:25:31.249Z,100.00
2019-03-08T15:30:35.596Z,100.00
2019-03-08T15:35:40.953Z,100.00
2019-03-08T15:40:46.367Z,100.00
2019-03-08T15:45:53.846Z,100.00
2019-03-08T15:50:59.583Z,100.00
2019-03-08T15:56:05.306Z,100.00
2019-03-08T16:01:10.725Z,100.00
2019-03-08T16:06:16.375Z,100.00
2019-03-08T16:11:21.625Z,100.00
2019-03-08T16:16:27.454Z,100.00
2019-03-08T16:21:32.728Z,100.00
2019-03-08T16:26:38.206Z,100.00
2019-03-08T16:31:49.700Z,100.00
2019-03-08T16:37:00.124Z,100.00
2019-03-08T16:42:10.260Z,100.00
2019-03-08T16:47:24.006Z,100.00
2019-03-08T16:52:38.004Z,100.00
2019-03-08T16:57:54.922Z,100.00
2019-03-08T17:03:09.226Z,100.00
2019-03-08T17:08:21.771Z,100.00
2019-03-08T17:13:37.640Z,100.00
2019-03-08T17:18:54.746Z,100.00
2019-03-08T17:24:08.961Z,100.00
2019-03-08T17:29:23.462Z,100.00
2019-03-08T17:34:41.026Z,100.00
2019-03-08T17:39:53.506Z,100.00
2019-03-08T17:45:07.131Z,100.00
2019-03-08T17:50:21.047Z,100.00
2019-03-08T17:55:36.591Z,100.00
2019-03-08T18:01:00.764Z,100.00
2019-03-08T18:06:15.029Z,100.00
2019-03-08T18:11:39.658Z,100.00
2019-03-08T18:16:54.491Z,100.00
2019-03-08T18:22:06.393Z,100.00
2019-03-08T18:27:20.791Z,100.00
2019-03-08T18:32:32.856Z,100.00
2019-03-08T18:37:45.818Z,100.00
2019-03-08T18:42:57.872Z,100.00
2019-03-08T18:48:12.011Z,100.00
2019-03-08T18:53:26.014Z,100.00
2019-03-08T18:58:40.271Z,100.00
2019-03-08T19:04:04.529Z,100.00
2019-03-08T19:09:18.192Z,100.00
2019-03-08T19:14:36.429Z,100.00
2019-03-08T19:19:50.371Z,100.00
2019-03-08T19:25:05.280Z,100.00
2019-03-08T19:30:22.110Z,100.00
2019-03-08T19:35:42.672Z,100.00
2019-03-08T19:40:55.931Z,100.00
2019-03-08T19:46:12.831Z,100.00
2019-03-08T19:51:35.055Z,100.00
2019-03-08T19:56:46.710Z,100.00
2019-03-08T20:02:00.088Z,100.00
2019-03-08T20:07:23.288Z,100.00
2019-03-08T20:12:36.951Z,100.00
2019-03-08T20:18:01.207Z,100.00
2019-03-08T20:23:15.038Z,100.00
2019-03-08T20:28:28.992Z,100.00
2019-03-08T20:33:44.532Z,100.00
2019-03-08T20:38:58.018Z,100.00
2019-03-08T20:44:11.712Z,100.00
2019-03-08T20:49:17.191Z,99.94
2019-03-08T20:54:22.572Z,99.73
2019-03-08T20:59:28.286Z,99.71
2019-03-08T21:04:34.312Z,99.56
2019-03-08T21:09:42.691Z,99.62
2019-03-08T21:14:48.013Z,99.67
2019-03-08T21:19:53.751Z,99.69
2019-03-08T21:24:59.950Z,99.65
2019-03-08T21:30:07.311Z,99.52
2019-03-08T21:35:15.630Z,99.44
2019-03-08T21:40:21.352Z,99.37
2019-03-08T21:45:26.752Z,99.52
2019-03-08T21:50:32.487Z,99.59
2019-03-08T21:55:37.849Z,99.69
2019-03-08T22:00:43.630Z,99.59
2019-03-08T22:05:48.932Z,99.61
2019-03-08T22:11:04.091Z,99.49
2019-03-08T22:16:09.387Z,99.49
2019-03-08T22:21:14.811Z,99.13
2019-03-08T22:26:22.621Z,99.11
2019-03-08T22:31:27.958Z,99.40
2019-03-08T22:36:33.424Z,99.22
2019-03-08T22:41:38.842Z,99.17
2019-03-08T22:46:45.488Z,99.07
2019-03-08T22:51:51.035Z,98.90
2019-03-08T22:56:56.283Z,98.67
2019-03-08T23:02:08.146Z,98.88
2019-03-08T23:07:13.482Z,98.89
2019-03-08T23:12:18.934Z,99.23
2019-03-08T23:17:24.400Z,99.33
2019-03-08T23:22:29.737Z,99.13
2019-03-08T23:27:39.990Z,99.22
2019-03-08T23:32:48.225Z,99.21
2019-03-08T23:37:53.466Z,99.10
2019-03-08T23:42:58.809Z,99.06
2019-03-08T23:48:04.054Z,98.93
2019-03-08T23:53:09.334Z,98.92
2019-03-08T23:58:14.610Z,98.78
